»·PEaware :: N3141P KSAN-KSNA

N3141P :: KSAN-KSNA

FLIGHT INFORMATION

Flight Status: Arrived
Operator: Privately registered:
United States
More flights under this callsign
Pilot: Andrew N. (12823)
Aircraft: PILATUS PC-12 EAGLE
(PC12)
More flights by this aircraft type
Origin: KSAN San Diego Intl-Lindbergh
United States
Destination: KSNA John Wayne-Orange Co
United States
More flights between these airports :: More routes between these airports
Route: CWARD2 SLI
File this flight plan on PilotEdge
Remarks:
Altitude:
(Current/Filed)
8,000ft
Speed:
(Current/Filed)
250kts
Departed: 28-Sep-18 05:58 AM
Arrived: 28-Sep-18 06:25 AM
Distance/Time
Traveled:
66nm/0:27
Distance/Time
To Go:
Arrived

Flight Plot

Page will automatically refresh every two minutes.

Flight plan parsing failed; only flown route is shown


Map Options




Map Legend


Flown Route
Filed Route
Departure Airport
Arrival Airport
Navaid (VOR, NDB)
Fix

Horizontal Profiles

Position Reports

Time Latitude Longitude Heading Altitude Ground
Speed
28-Sep-18 04:59 32.732091 -117.176568 194 19ft 0kts
28-Sep-18 05:00 32.732091 -117.176568 194 19ft 0kts
28-Sep-18 05:01 32.732091 -117.176568 194 19ft 0kts
28-Sep-18 05:02 32.732259 -117.176937 197 18ft 0kts
28-Sep-18 05:03 32.732260 -117.176936 197 18ft 0kts
28-Sep-18 05:04 32.732260 -117.176936 197 18ft 0kts
28-Sep-18 05:05 32.732260 -117.176936 197 18ft 0kts
28-Sep-18 05:06 32.732260 -117.176936 197 18ft 0kts
28-Sep-18 05:07 32.732260 -117.176936 197 18ft 0kts
28-Sep-18 05:08 32.732260 -117.176936 197 18ft 0kts
28-Sep-18 05:09 32.732260 -117.176936 197 18ft 0kts
28-Sep-18 05:10 32.732260 -117.176936 197 18ft 0kts
28-Sep-18 05:11 32.732260 -117.176936 197 18ft 0kts
28-Sep-18 05:12 32.732260 -117.176936 197 18ft 0kts
28-Sep-18 05:13 32.732260 -117.176936 197 18ft 0kts
28-Sep-18 05:14 32.732260 -117.176936 197 18ft 0kts
28-Sep-18 05:15 32.732260 -117.176936 197 18ft 0kts
28-Sep-18 05:16 32.732260 -117.176936 197 18ft 0kts
28-Sep-18 05:17 32.732260 -117.176936 197 18ft 0kts
28-Sep-18 05:18 32.732260 -117.176936 197 18ft 0kts
28-Sep-18 05:19 32.732260 -117.176936 197 18ft 0kts
28-Sep-18 05:20 32.732260 -117.176936 197 18ft 0kts
28-Sep-18 05:21 32.732260 -117.176936 197 18ft 0kts
28-Sep-18 05:22 32.732260 -117.176936 197 18ft 0kts
28-Sep-18 05:23 32.732260 -117.176936 197 18ft 0kts
28-Sep-18 05:24 32.732260 -117.176936 197 18ft 0kts
28-Sep-18 05:25 32.732260 -117.176936 197 18ft 0kts
28-Sep-18 05:26 32.732260 -117.176936 197 18ft 0kts
28-Sep-18 05:27 32.732260 -117.176936 197 18ft 0kts
28-Sep-18 05:28 32.732260 -117.176936 197 18ft 0kts
28-Sep-18 05:29 32.732260 -117.176936 197 18ft 0kts
28-Sep-18 05:30 32.732260 -117.176936 197 18ft 0kts
28-Sep-18 05:31 32.732260 -117.176936 197 18ft 0kts
28-Sep-18 05:32 32.732260 -117.176936 197 18ft 0kts
28-Sep-18 05:33 32.732260 -117.176936 197 18ft 0kts
28-Sep-18 05:34 32.732260 -117.176936 197 18ft 0kts
28-Sep-18 05:35 32.732260 -117.176936 197 18ft 0kts
28-Sep-18 05:36 32.732260 -117.176936 197 18ft 0kts
28-Sep-18 05:37 32.732260 -117.176936 197 18ft 0kts
28-Sep-18 05:38 32.732260 -117.176936 197 18ft 0kts
28-Sep-18 05:39 32.732260 -117.176936 197 18ft 0kts
28-Sep-18 05:40 32.732260 -117.176936 197 18ft 0kts
28-Sep-18 05:41 32.732260 -117.176936 197 18ft 0kts
28-Sep-18 05:42 32.732260 -117.176936 197 18ft 0kts
28-Sep-18 05:43 32.732260 -117.176936 197 18ft 0kts
28-Sep-18 05:44 32.732130 -117.176983 193 18ft 0kts
28-Sep-18 05:45 32.732130 -117.176983 193 18ft 0kts
28-Sep-18 05:46 32.732130 -117.176983 193 18ft 0kts
28-Sep-18 05:47 32.732130 -117.176983 193 18ft 0kts
28-Sep-18 05:48 32.730853 -117.175427 139 18ft 0kts
28-Sep-18 05:49 32.730853 -117.175427 139 18ft 0kts
28-Sep-18 05:50 32.730853 -117.175427 139 18ft 0kts
28-Sep-18 05:51 32.730853 -117.175427 139 18ft 0kts
28-Sep-18 05:52 32.730853 -117.175427 139 18ft 0kts
28-Sep-18 05:53 32.730853 -117.175427 139 18ft 0kts
28-Sep-18 05:54 32.730853 -117.175427 139 18ft 0kts
28-Sep-18 05:55 32.730853 -117.175427 139 18ft 0kts
28-Sep-18 05:56 32.730853 -117.175427 139 18ft 0kts
28-Sep-18 05:57 32.730853 -117.175427 139 18ft 0kts
28-Sep-18 05:58 32.730853 -117.175427 139 18ft 0kts
28-Sep-18 05:59 32.730257 -117.175995 285 18ft 0kts
28-Sep-18 06:00 32.736429 -117.202977 285 960ft 115kts
28-Sep-18 06:01 32.753031 -117.237032 302 2941ft 141kts
28-Sep-18 06:02 32.776979 -117.279493 302 5137ft 164kts
28-Sep-18 06:03 32.803363 -117.324943 305 7444ft 174kts
28-Sep-18 06:04 32.838096 -117.378783 305 7977ft 240kts
28-Sep-18 06:05 32.880489 -117.444298 305 7975ft 255kts
28-Sep-18 06:06 32.923607 -117.511304 305 7980ft 256kts
28-Sep-18 06:07 32.966640 -117.578636 308 7989ft 260kts
28-Sep-18 06:08 33.010238 -117.646358 308 7991ft 261kts
28-Sep-18 06:09 33.052445 -117.712310 307 7991ft 246kts
28-Sep-18 06:10 33.102701 -117.769476 319 7990ft 252kts
28-Sep-18 06:11 33.154160 -117.821729 319 7967ft 242kts
28-Sep-18 06:12 33.208381 -117.865976 349 6475ft 239kts
28-Sep-18 06:13 33.261716 -117.878875 348 5230ft 238kts
28-Sep-18 06:14 33.335510 -117.906343 305 5004ft 231kts
28-Sep-18 06:15 33.365311 -117.964862 301 4995ft 183kts
28-Sep-18 06:16 33.385888 -118.006382 301 4998ft 167kts
28-Sep-18 06:17 33.412656 -118.060547 301 4996ft 159kts
28-Sep-18 06:18 33.432113 -118.099567 301 4266ft 160kts
28-Sep-18 06:19 33.462422 -118.075574 85 2730ft 209kts
28-Sep-18 06:20 33.480300 -118.021537 57 2010ft 210kts
28-Sep-18 06:21 33.508001 -117.975245 30 1995ft 160kts
28-Sep-18 06:22 33.546917 -117.950438 27 1990ft 157kts
28-Sep-18 06:23 33.584991 -117.926390 27 1853ft 163kts
28-Sep-18 06:24 33.621342 -117.903318 27 1106ft 111kts
28-Sep-18 06:25 33.643487 -117.889528 27 611ft 103kts
28-Sep-18 06:26 33.667328 -117.874142 26 100ft 95kts
28-Sep-18 06:27 33.676179 -117.869760 315 60ft 0kts
28-Sep-18 06:28 33.676568 -117.870526 299 60ft 14kts
28-Sep-18 06:29 33.676639 -117.870683 296 60ft 0kts
28-Sep-18 06:30 33.676639 -117.870683 296 60ft 0kts

Navigation Log

Ident Type
Flight plan parsing failed, navigation log unavailable